createdAt,value
2019-03-01T00:01:26.110Z,63.83
2019-03-01T00:04:34.556Z,77.13
2019-03-01T00:07:41.736Z,72.03
2019-03-01T00:10:50.211Z,71.57
2019-03-01T00:13:58.719Z,64.50
2019-03-01T00:17:05.866Z,80.07
2019-03-01T00:20:14.695Z,64.03
2019-03-01T00:23:23.112Z,73.20
2019-03-01T00:26:31.567Z,77.07
2019-03-01T00:29:38.706Z,83.07
2019-03-01T00:32:45.892Z,65.47
2019-03-01T00:35:53.101Z,77.83
2019-03-01T00:39:00.267Z,66.13
2019-03-01T00:42:07.466Z,73.90
2019-03-01T00:44:55.322Z,84.83
2019-03-01T00:49:57.642Z,70.93
2019-03-01T00:52:26.131Z,77.43
2019-03-01T00:54:54.580Z,70.50
2019-03-01T00:57:23.426Z,75.80
2019-03-01T00:59:52.018Z,72.93
2019-03-01T01:02:20.436Z,72.90
2019-03-01T01:04:48.986Z,70.80
2019-03-01T01:07:17.525Z,79.30
2019-03-01T01:09:45.978Z,76.87
2019-03-01T01:12:14.603Z,71.90
2019-03-01T01:14:43.092Z,71.70
2019-03-01T01:17:11.699Z,69.23
2019-03-01T01:19:40.212Z,66.10
2019-03-01T01:22:08.718Z,66.43
2019-03-01T01:24:37.274Z,65.33
2019-03-01T01:27:06.126Z,71.37
2019-03-01T01:29:34.531Z,67.67
2019-03-01T01:32:03.070Z,58.37
2019-03-01T01:34:31.684Z,73.77
2019-03-01T01:37:00.669Z,63.47
2019-03-01T01:39:29.158Z,73.83
2019-03-01T01:41:57.629Z,70.07
2019-03-01T01:44:26.527Z,76.30
2019-03-01T01:46:55.183Z,66.13
2019-03-01T01:49:23.544Z,64.43
2019-03-01T01:51:52.181Z,69.40
2019-03-01T01:54:20.552Z,74.17
2019-03-01T01:56:49.447Z,63.77
2019-03-01T01:59:17.985Z,68.83
2019-03-01T02:01:46.432Z,82.87
2019-03-01T02:04:14.922Z,89.00
2019-03-01T02:06:43.353Z,64.10
2019-03-01T02:09:31.089Z,64.83
2019-03-01T02:12:00.022Z,72.40
2019-03-01T02:14:28.791Z,62.50
2019-03-01T02:16:57.291Z,81.37
2019-03-01T02:19:26.173Z,63.63
2019-03-01T02:21:54.728Z,78.17
2019-03-01T02:24:23.180Z,57.33
2019-03-01T02:30:00.172Z,77.57
2019-03-01T02:32:50.102Z,80.73
2019-03-01T02:35:58.546Z,68.13
2019-03-01T02:38:27.020Z,78.27
2019-03-01T02:40:55.492Z,61.60
2019-03-01T02:43:23.871Z,62.37
2019-03-01T02:45:52.421Z,62.10
2019-03-01T02:48:21.159Z,59.60
2019-03-01T02:50:49.702Z,72.03
2019-03-01T02:53:18.165Z,62.17
2019-03-01T02:55:46.635Z,83.63
2019-03-01T02:58:15.509Z,74.80
2019-03-01T03:00:44.031Z,66.30
2019-03-01T03:03:12.599Z,66.00
2019-03-01T03:06:00.485Z,65.63
2019-03-01T03:08:28.994Z,62.57
2019-03-01T03:10:57.474Z,68.17
2019-03-01T03:13:25.994Z,67.97
2019-03-01T03:18:43.489Z,68.40
2019-03-01T03:21:12.389Z,76.97
2019-03-01T03:23:40.898Z,65.57
2019-03-01T03:28:58.469Z,66.97
2019-03-01T03:31:27.309Z,62.20
2019-03-01T03:33:55.990Z,69.17
2019-03-01T03:36:24.401Z,67.33
2019-03-01T03:38:52.981Z,68.17
2019-03-01T03:41:21.519Z,71.97
2019-03-01T03:43:49.920Z,71.43
2019-03-01T03:46:18.308Z,70.40
2019-03-01T03:48:46.678Z,68.03
2019-03-01T03:51:15.272Z,73.17
2019-03-01T03:53:44.061Z,69.10
2019-03-01T03:56:12.543Z,80.73
2019-03-01T03:58:41.345Z,64.83
2019-03-01T04:01:09.935Z,71.37
2019-03-01T04:03:38.357Z,81.57
2019-03-01T04:06:07.018Z,76.70
2019-03-01T04:08:35.537Z,72.10
2019-03-01T04:11:04.083Z,75.80
2019-03-01T04:13:32.557Z,82.03
2019-03-01T04:16:01.245Z,72.83
2019-03-01T04:18:29.828Z,76.30
2019-03-01T04:24:06.485Z,70.10
2019-03-01T04:26:34.902Z,73.33
2019-03-01T04:29:03.502Z,75.50
2019-03-01T04:31:32.124Z,78.47
2019-03-01T04:34:00.591Z,74.70
2019-03-01T04:36:29.265Z,84.87
2019-03-01T04:38:57.813Z,81.33
2019-03-01T04:41:26.703Z,67.90
2019-03-01T04:43:55.259Z,77.07
2019-03-01T04:46:23.780Z,80.87
2019-03-01T04:48:52.246Z,76.83
2019-03-01T04:51:20.749Z,70.20
2019-03-01T04:53:49.257Z,75.60
2019-03-01T04:56:17.772Z,71.83
2019-03-01T04:58:46.694Z,79.50
2019-03-01T05:01:15.250Z,74.50
2019-03-01T05:03:43.622Z,90.87
2019-03-01T05:06:12.361Z,78.23
2019-03-01T05:08:41.237Z,82.60
2019-03-01T05:11:09.867Z,75.13
2019-03-01T05:13:38.414Z,92.10
2019-03-01T05:16:07.009Z,99.73
2019-03-01T05:18:35.539Z,105.57
2019-03-01T05:21:04.110Z,123.53
2019-03-01T05:23:32.637Z,129.30
2019-03-01T05:26:01.534Z,110.63
2019-03-01T05:28:29.944Z,143.93
2019-03-01T05:30:58.427Z,116.50
2019-03-01T05:33:26.887Z,107.63
2019-03-01T05:35:55.379Z,120.30
2019-03-01T05:38:23.867Z,131.40
2019-03-01T05:40:52.283Z,140.13
2019-03-01T05:43:20.790Z,129.87
2019-03-01T05:45:49.599Z,133.20
2019-03-01T05:48:18.145Z,134.33
2019-03-01T05:50:46.767Z,127.50
2019-03-01T05:53:15.342Z,128.73
2019-03-01T05:55:43.882Z,126.90
2019-03-01T05:58:32.389Z,124.10
2019-03-01T06:01:40.880Z,112.20
2019-03-01T06:04:49.421Z,130.47
2019-03-01T06:07:57.910Z,110.07
2019-03-01T06:11:06.403Z,127.00
2019-03-01T06:14:13.620Z,107.87
2019-03-01T06:17:22.071Z,115.37
2019-03-01T06:20:11.477Z,116.60
2019-03-01T06:23:18.589Z,112.33
2019-03-01T06:26:27.058Z,124.17
2019-03-01T06:29:35.813Z,122.73
2019-03-01T06:32:43.245Z,131.80
2019-03-01T06:35:51.786Z,122.20
2019-03-01T06:39:18.311Z,132.13
2019-03-01T06:42:26.811Z,127.60
2019-03-01T06:45:33.979Z,113.90
2019-03-01T06:48:02.484Z,119.97
2019-03-01T06:50:50.244Z,136.90
2019-03-01T06:53:18.736Z,112.47
2019-03-01T06:55:47.271Z,119.63
2019-03-01T06:58:55.763Z,111.37
2019-03-01T07:06:52.937Z,142.27
2019-03-01T07:09:21.429Z,133.50
2019-03-01T07:12:10.926Z,129.27
2019-03-01T07:14:39.585Z,124.77
2019-03-01T07:17:08.424Z,135.77
2019-03-01T07:19:37.399Z,155.97
2019-03-01T07:25:37.473Z,119.30
2019-03-01T07:28:05.864Z,131.37
2019-03-01T07:30:34.718Z,145.40
2019-03-01T07:33:03.428Z,143.83
2019-03-01T07:35:32.659Z,138.83
2019-03-01T07:38:01.422Z,141.87
2019-03-01T07:40:29.957Z,154.17
2019-03-01T07:42:58.620Z,145.00
2019-03-01T07:45:27.364Z,140.07
2019-03-01T07:47:55.873Z,166.90
2019-03-01T07:50:44.268Z,145.60
2019-03-01T07:53:32.426Z,144.23
2019-03-01T07:56:04.110Z,153.30
2019-03-01T07:58:31.293Z,132.00
2019-03-01T08:00:59.947Z,135.50
2019-03-01T08:03:28.461Z,161.00
2019-03-01T08:05:56.988Z,152.53
2019-03-01T08:08:25.719Z,146.73
2019-03-01T08:10:56.334Z,160.23
2019-03-01T08:13:26.657Z,154.87
2019-03-01T08:15:55.093Z,144.50
2019-03-01T08:18:23.560Z,144.77
2019-03-01T08:20:51.965Z,153.03
2019-03-01T08:23:20.437Z,155.27
2019-03-01T08:25:48.994Z,145.17
2019-03-01T08:28:18.517Z,154.37
2019-03-01T08:30:48.064Z,150.37
2019-03-01T08:33:16.649Z,137.80
2019-03-01T08:35:45.209Z,149.20
2019-03-01T08:38:14.006Z,163.50
2019-03-01T08:40:42.876Z,153.87
2019-03-01T08:43:13.011Z,140.60
2019-03-01T08:45:41.813Z,148.63
2019-03-01T08:48:10.455Z,153.20
2019-03-01T08:50:39.229Z,154.10
2019-03-01T08:53:07.877Z,155.73
2019-03-01T08:55:38.851Z,155.47
2019-03-01T08:58:07.170Z,152.63
2019-03-01T09:03:44.991Z,133.23
2019-03-01T09:06:13.515Z,148.27
2019-03-01T09:08:42.947Z,157.60
2019-03-01T09:11:12.470Z,149.07
2019-03-01T09:13:40.921Z,145.40
2019-03-01T09:16:09.447Z,157.70
2019-03-01T09:18:37.987Z,164.93
2019-03-01T09:21:12.347Z,133.93
2019-03-01T09:23:36.771Z,162.50
2019-03-01T09:26:05.755Z,159.17
2019-03-01T09:28:38.619Z,154.37
2019-03-01T09:31:04.656Z,167.50
2019-03-01T09:33:33.219Z,167.50
2019-03-01T09:38:50.868Z,180.70
2019-03-01T09:41:19.454Z,173.33
2019-03-01T09:43:48.097Z,181.40
2019-03-01T09:46:16.621Z,160.30
2019-03-01T09:48:45.612Z,170.37
2019-03-01T09:51:15.973Z,176.67
2019-03-01T09:53:45.784Z,171.80
2019-03-01T09:56:14.250Z,152.60
2019-03-01T09:58:43.169Z,185.67
2019-03-01T10:01:51.612Z,166.13
2019-03-01T10:04:20.376Z,164.27
2019-03-01T10:06:48.855Z,170.80
2019-03-01T10:09:17.332Z,156.00
2019-03-01T10:11:45.796Z,171.07
2019-03-01T10:14:14.327Z,174.33
2019-03-01T10:16:43.096Z,181.87
2019-03-01T10:19:11.985Z,169.63
2019-03-01T10:21:40.517Z,168.20
2019-03-01T10:24:09.113Z,182.60
2019-03-01T10:26:37.961Z,171.40
2019-03-01T10:29:06.480Z,184.57
2019-03-01T10:31:35.056Z,162.03
2019-03-01T10:34:04.214Z,147.93
2019-03-01T10:36:32.875Z,182.40
2019-03-01T10:39:01.406Z,142.13
2019-03-01T10:41:29.869Z,119.83
2019-03-01T10:43:58.536Z,122.40
2019-03-01T10:46:27.155Z,119.37
2019-03-01T10:48:55.825Z,143.93
2019-03-01T10:51:24.381Z,111.77
2019-03-01T10:53:52.951Z,144.03
2019-03-01T10:56:21.779Z,140.43
2019-03-01T10:58:50.183Z,124.43
2019-03-01T11:01:18.689Z,136.00
2019-03-01T11:03:47.260Z,148.93
2019-03-01T11:06:15.818Z,119.30
2019-03-01T11:08:44.371Z,137.33
2019-03-01T11:11:12.926Z,131.05
2019-03-01T11:13:41.448Z,135.20
2019-03-01T11:16:09.991Z,160.60
2019-03-01T11:18:38.839Z,123.43
2019-03-01T11:21:07.346Z,131.37
2019-03-01T11:23:56.507Z,122.47
2019-03-01T11:26:25.378Z,131.87
2019-03-01T11:28:54.268Z,122.97
2019-03-01T11:31:22.775Z,131.20
2019-03-01T11:33:51.251Z,136.67
2019-03-01T11:36:20.225Z,130.10
2019-03-01T11:38:48.872Z,134.43
2019-03-01T11:41:17.503Z,146.27
2019-03-01T11:43:45.977Z,125.20
2019-03-01T11:46:14.924Z,119.10
2019-03-01T11:48:43.554Z,123.60
2019-03-01T11:51:12.017Z,118.90
2019-03-01T11:53:40.783Z,117.93
2019-03-01T11:56:09.314Z,118.03
2019-03-01T11:59:17.840Z,128.20
2019-03-01T12:01:46.400Z,141.50
2019-03-01T12:04:14.880Z,135.17
2019-03-01T12:06:43.496Z,129.73
2019-03-01T12:09:11.981Z,115.17
2019-03-01T12:11:40.500Z,133.00
2019-03-01T12:14:09.162Z,124.33
2019-03-01T12:16:38.034Z,98.13
2019-03-01T12:19:06.493Z,118.97
2019-03-01T12:21:35.052Z,116.63
2019-03-01T12:24:03.815Z,114.60
2019-03-01T12:26:32.395Z,123.60
2019-03-01T12:29:01.018Z,116.33
2019-03-01T12:31:29.848Z,134.30
2019-03-01T12:33:58.330Z,124.33
2019-03-01T12:36:26.797Z,113.60
2019-03-01T12:38:55.362Z,121.70
2019-03-01T12:41:23.982Z,120.83
2019-03-01T12:43:52.526Z,101.73
2019-03-01T12:46:21.004Z,86.17
2019-03-01T12:48:49.561Z,100.80
2019-03-01T12:51:18.107Z,98.80
2019-03-01T12:53:46.907Z,108.43
2019-03-01T12:56:15.297Z,112.77
2019-03-01T12:58:43.883Z,95.47
2019-03-01T13:01:12.762Z,94.13
2019-03-01T13:03:43.780Z,100.33
2019-03-01T13:06:11.579Z,79.83
2019-03-01T13:08:40.031Z,96.40
2019-03-01T13:11:08.610Z,84.43
2019-03-01T13:13:38.380Z,79.27
2019-03-01T13:16:07.344Z,74.00
2019-03-01T13:21:23.774Z,79.00
2019-03-01T13:23:52.282Z,63.20
2019-03-01T13:26:20.825Z,80.37
2019-03-01T13:28:49.457Z,73.27
2019-03-01T13:31:18.045Z,68.97
2019-03-01T13:33:47.012Z,61.10
2019-03-01T13:36:15.482Z,53.70
2019-03-01T13:38:44.108Z,54.90
2019-03-01T13:41:12.646Z,63.97
2019-03-01T13:43:41.036Z,37.53
2019-03-01T13:46:09.610Z,47.73
2019-03-01T13:48:38.148Z,53.30
2019-03-01T13:51:07.273Z,56.33
2019-03-01T13:53:35.924Z,35.20
2019-03-01T13:56:04.529Z,35.97
2019-03-01T13:58:33.053Z,30.43
2019-03-01T14:01:02.254Z,33.37
2019-03-01T14:03:30.791Z,40.07
2019-03-01T14:05:59.366Z,41.10
2019-03-01T14:08:27.916Z,35.53
2019-03-01T14:10:56.628Z,38.17
2019-03-01T14:13:25.187Z,37.37
2019-03-01T14:16:13.712Z,46.43
2019-03-01T14:18:42.172Z,38.07
2019-03-01T14:21:10.788Z,27.50
2019-03-01T14:23:39.435Z,36.20
2019-03-01T14:26:08.515Z,41.87
2019-03-01T14:28:41.226Z,31.03
2019-03-01T14:31:09.005Z,33.77
2019-03-01T14:33:37.682Z,34.97
2019-03-01T14:36:06.278Z,34.83
2019-03-01T14:38:35.083Z,26.90
2019-03-01T14:41:03.973Z,46.63
2019-03-01T14:43:32.548Z,32.13
2019-03-01T14:46:01.455Z,23.90
2019-03-01T14:48:30.242Z,29.87
2019-03-01T14:50:59.739Z,29.70
2019-03-01T14:53:31.149Z,29.80
2019-03-01T14:56:21.431Z,31.87
2019-03-01T14:59:35.049Z,27.23
2019-03-01T15:02:40.682Z,32.40
2019-03-01T15:05:17.135Z,30.23
2019-03-01T15:07:39.039Z,29.07
2019-03-01T15:10:47.536Z,25.23
2019-03-01T15:13:15.957Z,22.90
2019-03-01T15:15:44.477Z,42.10
2019-03-01T15:18:12.940Z,29.77
2019-03-01T15:20:41.453Z,29.20
2019-03-01T15:23:10.026Z,29.30
2019-03-01T15:25:38.486Z,25.90
2019-03-01T15:28:07.079Z,24.70
2019-03-01T15:30:35.697Z,24.87
2019-03-01T15:33:04.205Z,19.30
2019-03-01T15:35:32.689Z,23.57
2019-03-01T15:38:23.925Z,19.70
2019-03-01T15:41:30.729Z,19.57
2019-03-01T15:43:59.204Z,19.07
2019-03-01T15:46:27.608Z,25.50
2019-03-01T15:48:56.148Z,20.77
2019-03-01T15:51:24.641Z,19.57
2019-03-01T15:53:53.182Z,25.47
2019-03-01T15:56:22.167Z,20.03
2019-03-01T15:58:52.183Z,28.77
2019-03-01T16:01:20.814Z,25.23
2019-03-01T16:03:49.410Z,22.50
2019-03-01T16:08:53.740Z,19.90
2019-03-01T16:14:11.619Z,27.37
2019-03-01T16:16:41.054Z,28.10
2019-03-01T16:19:11.157Z,24.73
2019-03-01T16:21:43.062Z,18.03
2019-03-01T16:24:10.237Z,30.30
2019-03-01T16:26:38.714Z,38.10
2019-03-01T16:29:08.031Z,21.63
2019-03-01T16:31:37.757Z,20.07
2019-03-01T16:34:06.299Z,25.67
2019-03-01T16:39:13.637Z,33.30
2019-03-01T16:41:43.662Z,25.03
2019-03-01T16:44:12.824Z,23.70
2019-03-01T16:46:41.756Z,30.80
2019-03-01T16:49:10.646Z,22.83
2019-03-01T16:51:39.116Z,25.17
2019-03-01T16:54:07.525Z,21.37
2019-03-01T16:56:38.461Z,19.97
2019-03-01T16:59:07.280Z,20.83
2019-03-01T17:01:36.450Z,21.00
2019-03-01T17:04:04.967Z,22.33
2019-03-01T17:06:33.533Z,27.87
2019-03-01T17:09:02.071Z,25.83
2019-03-01T17:11:30.555Z,19.23
2019-03-01T17:13:59.577Z,28.50
2019-03-01T17:16:29.584Z,59.43
2019-03-01T17:18:58.377Z,26.30
2019-03-01T17:21:26.953Z,25.93
2019-03-01T17:23:55.493Z,21.00
2019-03-01T17:26:26.331Z,20.57
2019-03-01T17:28:54.409Z,28.23
2019-03-01T17:31:23.169Z,27.73
2019-03-01T17:33:53.300Z,21.27
2019-03-01T17:36:22.260Z,30.73
2019-03-01T17:38:50.900Z,33.03
2019-03-01T17:41:19.368Z,24.93
2019-03-01T17:43:47.831Z,19.70
2019-03-01T17:46:16.431Z,22.63
2019-03-01T17:48:44.843Z,20.47
2019-03-01T17:51:13.285Z,21.50
2019-03-01T17:53:43.013Z,24.10
2019-03-01T17:56:12.388Z,23.00
2019-03-01T17:58:41.162Z,29.47
2019-03-01T18:01:09.683Z,22.17
2019-03-01T18:03:38.305Z,21.43
2019-03-01T18:06:06.850Z,26.87
2019-03-01T18:08:39.557Z,20.80
2019-03-01T18:11:08.614Z,25.50
2019-03-01T18:13:36.779Z,25.60
2019-03-01T18:16:45.196Z,31.20
2019-03-01T18:19:13.761Z,21.27
2019-03-01T18:24:50.766Z,21.73
2019-03-01T18:30:34.443Z,19.20
2019-03-01T18:33:03.208Z,21.60
2019-03-01T18:35:31.867Z,19.67
2019-03-01T18:38:00.470Z,21.43
2019-03-01T18:40:29.084Z,21.80
2019-03-01T18:42:57.899Z,17.00
2019-03-01T18:46:07.044Z,19.03
2019-03-01T18:49:16.707Z,21.87
2019-03-01T18:51:46.508Z,21.20
2019-03-01T18:54:15.921Z,30.03
2019-03-01T18:56:44.580Z,19.30
2019-03-01T18:59:13.174Z,18.57
2019-03-01T19:01:42.872Z,19.30
2019-03-01T19:04:13.058Z,21.10
2019-03-01T19:06:43.077Z,26.00
2019-03-01T19:09:12.678Z,24.00
2019-03-01T19:11:42.153Z,17.87
2019-03-01T19:14:10.831Z,19.23
2019-03-01T19:16:39.383Z,22.90
2019-03-01T19:19:07.880Z,20.67
2019-03-01T19:24:51.189Z,17.20
2019-03-01T19:27:40.221Z,16.93
2019-03-01T19:33:46.159Z,18.97
2019-03-01T19:39:02.491Z,19.73
2019-03-01T19:41:31.049Z,18.37
2019-03-01T19:43:59.996Z,19.60
2019-03-01T19:46:51.436Z,22.40
2019-03-01T19:49:19.777Z,20.57
2019-03-01T19:51:48.531Z,20.93
2019-03-01T19:54:17.148Z,14.93
2019-03-01T19:56:45.688Z,18.70
2019-03-01T19:59:21.447Z,19.43
2019-03-01T20:01:52.589Z,22.17
2019-03-01T20:04:21.111Z,19.00
2019-03-01T20:09:46.963Z,16.93
2019-03-01T20:12:15.603Z,19.00
2019-03-01T20:14:44.271Z,16.50
2019-03-01T20:17:13.018Z,13.27
2019-03-01T20:19:41.889Z,17.80
2019-03-01T20:22:10.664Z,15.23
2019-03-01T20:28:27.305Z,23.57
2019-03-01T20:30:55.852Z,30.87
2019-03-01T20:33:27.128Z,18.93
2019-03-01T20:41:25.440Z,15.57
2019-03-01T20:43:54.015Z,25.03
2019-03-01T20:46:24.412Z,15.80
2019-03-01T20:48:52.932Z,16.07
2019-03-01T20:51:40.656Z,25.93
2019-03-01T20:54:09.517Z,17.13
2019-03-01T20:56:37.966Z,21.03
2019-03-01T20:59:07.022Z,15.40
2019-03-01T21:01:37.354Z,20.20
2019-03-01T21:04:05.990Z,18.63
2019-03-01T21:06:37.429Z,22.03
2019-03-01T21:09:44.839Z,17.73
2019-03-01T21:12:13.494Z,15.67
2019-03-01T21:14:42.102Z,16.27
2019-03-01T21:17:10.669Z,20.50
2019-03-01T21:19:40.850Z,16.90
2019-03-01T21:22:09.580Z,15.27
2019-03-01T21:24:38.353Z,19.93
2019-03-01T21:27:06.979Z,22.67
2019-03-01T21:29:35.722Z,20.27
2019-03-01T21:32:04.477Z,16.20
2019-03-01T21:34:34.849Z,20.50
2019-03-01T21:40:22.459Z,21.10
2019-03-01T21:45:28.433Z,22.53
2019-03-01T21:50:46.187Z,16.80
2019-03-01T21:53:14.903Z,23.40
2019-03-01T21:55:43.582Z,23.50
2019-03-01T22:04:14.976Z,18.30
2019-03-01T22:06:43.541Z,22.57
2019-03-01T22:09:52.197Z,24.23
2019-03-01T22:12:24.643Z,27.53
2019-03-01T22:14:52.839Z,16.23
2019-03-01T22:17:21.483Z,21.30
2019-03-01T22:19:52.184Z,21.47
2019-03-01T22:22:20.678Z,24.90
2019-03-01T22:24:49.244Z,19.10
2019-03-01T22:30:45.292Z,18.93
2019-03-01T22:33:13.840Z,21.83
2019-03-01T22:35:43.520Z,21.23
2019-03-01T22:38:13.266Z,21.83
2019-03-01T22:40:41.893Z,17.60
2019-03-01T22:43:10.411Z,24.40
2019-03-01T22:45:38.984Z,25.77
2019-03-01T22:48:08.406Z,19.30
2019-03-01T22:50:39.451Z,19.63
2019-03-01T22:53:08.218Z,21.43
2019-03-01T22:55:37.606Z,14.50
2019-03-01T22:58:07.150Z,15.40
2019-03-01T23:01:16.034Z,17.13
2019-03-01T23:03:45.919Z,18.83
2019-03-01T23:06:14.896Z,20.20
2019-03-01T23:08:45.079Z,18.80
2019-03-01T23:11:53.545Z,20.63
2019-03-01T23:14:22.241Z,31.50
2019-03-01T23:16:54.353Z,24.00
2019-03-01T23:19:21.040Z,23.10
2019-03-01T23:21:49.587Z,38.97
2019-03-01T23:24:18.175Z,18.80
2019-03-01T23:26:46.794Z,21.53
2019-03-01T23:29:18.435Z,19.43
2019-03-01T23:34:21.209Z,18.70
2019-03-01T23:41:59.995Z,21.87
2019-03-01T23:44:28.615Z,18.20
2019-03-01T23:46:59.502Z,20.50
2019-03-01T23:49:27.401Z,16.60
2019-03-01T23:51:56.065Z,20.43
2019-03-01T23:54:25.035Z,22.73
2019-03-01T23:56:53.638Z,26.53
2019-03-01T23:59:23.778Z,18.00
